Time;durP1;ratioP1;P1;durP2;ratioP2;P2;SDS_P1;SDS_P2;PMS_P1;PMS_P2;Temp;Humidity;BMP_temperature;BMP_pressure;BME280_temperature;BME280_humidity;BME280_pressure;Samples;Min_cycle;Max_cycle;Signal;HPM_P1;HPM_P2
2021/11/06 00:00:13;;;;;;;28.03;25.23;;;5.20;99.90;;;;;;5011616;28;20688;-77
2021/11/06 00:02:40;;;;;;;26.33;23.93;;;5.20;99.90;;;;;;5001950;28;20216;-78
2021/11/06 00:05:08;;;;;;;26.33;23.83;;;5.20;99.90;;;;;;5011713;28;20215;-78
2021/11/06 00:07:35;;;;;;;28.40;25.60;;;5.20;99.90;;;;;;5006411;28;20221;-78
2021/11/06 00:10:03;;;;;;;26.53;24.13;;;5.20;99.90;;;;;;5001844;28;20202;-78
2021/11/06 00:12:30;;;;;;;26.07;23.67;;;5.20;99.90;;;;;;5009057;28;20193;-78
2021/11/06 00:14:57;;;;;;;25.00;22.77;;;5.20;99.90;;;;;;5013719;28;20251;-77
2021/11/06 00:17:24;;;;;;;25.83;23.43;;;5.10;99.90;;;;;;5011247;28;20232;-78
2021/11/06 00:19:50;;;;;;;25.53;23.17;;;5.00;99.90;;;;;;5003312;28;20606;-78
2021/11/06 00:22:18;;;;;;;23.70;21.67;;;4.90;99.90;;;;;;5002499;28;20225;-78
2021/11/06 00:24:45;;;;;;;23.67;21.50;;;4.90;99.90;;;;;;5002519;28;20307;-78
2021/11/06 00:27:12;;;;;;;25.30;22.97;;;4.80;99.90;;;;;;5013486;28;20713;-78
2021/11/06 00:29:39;;;;;;;23.37;21.47;;;4.70;99.90;;;;;;5004842;28;20210;-76
2021/11/06 00:32:07;;;;;;;22.80;20.70;;;4.70;99.90;;;;;;5011722;28;20247;-78
2021/11/06 00:34:34;;;;;;;22.67;20.60;;;4.70;99.90;;;;;;5014869;28;20204;-77
2021/11/06 00:37:01;;;;;;;22.40;20.60;;;4.60;99.90;;;;;;5009522;28;20232;-78
2021/11/06 00:39:29;;;;;;;23.43;21.43;;;4.50;99.90;;;;;;5018265;28;20208;-78
2021/11/06 00:41:56;;;;;;;24.60;22.40;;;4.50;99.90;;;;;;4998036;28;20221;-78
2021/11/06 00:44:23;;;;;;;23.87;21.77;;;4.40;99.90;;;;;;4993859;28;20550;-78
2021/11/06 00:46:49;;;;;;;22.93;20.90;;;4.40;99.90;;;;;;5021620;28;20307;-78
2021/11/06 00:49:16;;;;;;;22.47;20.67;;;4.40;99.90;;;;;;5013085;28;20243;-78
2021/11/06 00:51:43;;;;;;;22.13;20.27;;;4.30;99.90;;;;;;5011968;28;20548;-77
2021/11/06 00:54:10;;;;;;;22.50;20.77;;;4.40;99.90;;;;;;5009721;28;20584;-78
2021/11/06 00:56:38;;;;;;;23.20;21.00;;;4.40;99.90;;;;;;5016188;28;20291;-78
2021/11/06 00:59:05;;;;;;;22.40;20.17;;;4.30;99.90;;;;;;5014291;28;20612;-78
2021/11/06 01:01:32;;;;;;;21.70;20.00;;;4.30;99.90;;;;;;5014187;28;20979;-78
2021/11/06 01:03:59;;;;;;;22.10;20.20;;;4.20;99.90;;;;;;5014148;28;20199;-78
2021/11/06 01:06:26;;;;;;;19.60;18.23;;;4.20;99.90;;;;;;5014339;28;20196;-76
2021/11/06 01:08:53;;;;;;;21.30;19.70;;;4.20;99.90;;;;;;5004863;28;20256;-78
2021/11/06 01:11:20;;;;;;;22.30;20.40;;;4.20;99.90;;;;;;5010330;28;20197;-78
2021/11/06 01:13:48;;;;;;;22.60;20.60;;;4.10;99.90;;;;;;5007456;28;20771;-77
2021/11/06 01:16:15;;;;;;;23.00;21.10;;;4.20;99.90;;;;;;5013851;28;20686;-78
2021/11/06 01:18:42;;;;;;;24.13;22.13;;;4.20;99.90;;;;;;5013890;28;20434;-78
2021/11/06 01:21:09;;;;;;;22.80;21.00;;;4.10;99.90;;;;;;5014295;28;20727;-78
2021/11/06 01:23:36;;;;;;;24.67;22.40;;;4.10;99.90;;;;;;5020053;28;20447;-78
2021/11/06 01:26:03;;;;;;;24.30;22.10;;;4.10;99.90;;;;;;5014000;28;20435;-77
2021/11/06 01:28:30;;;;;;;22.67;20.87;;;4.10;99.90;;;;;;5013505;28;20797;-78
2021/11/06 01:30:58;;;;;;;22.20;20.50;;;4.10;99.90;;;;;;5016451;28;20196;-78
2021/11/06 01:33:25;;;;;;;21.47;19.67;;;4.20;99.90;;;;;;5014082;28;20196;-78
2021/11/06 01:35:52;;;;;;;22.13;20.23;;;4.10;99.90;;;;;;5002189;28;20725;-78
2021/11/06 01:38:19;;;;;;;21.43;19.83;;;4.20;99.90;;;;;;5009312;28;20220;-79
2021/11/06 01:40:46;;;;;;;23.17;21.37;;;4.20;99.90;;;;;;5009408;28;20247;-77
2021/11/06 01:43:13;;;;;;;22.13;20.23;;;4.20;99.90;;;;;;5012272;28;20216;-78
2021/11/06 01:45:40;;;;;;;20.90;19.20;;;4.10;99.90;;;;;;5009270;28;20456;-78
2021/11/06 01:48:08;;;;;;;21.63;19.83;;;4.00;99.90;;;;;;5004642;28;20635;-78
2021/11/06 01:50:36;;;;;;;21.03;19.47;;;4.00;99.90;;;;;;5005945;28;20247;-78
2021/11/06 01:53:03;;;;;;;20.57;18.97;;;4.00;99.90;;;;;;5013480;28;20662;-78
2021/11/06 01:55:31;;;;;;;20.33;18.93;;;3.90;99.90;;;;;;5007757;28;20205;-78
2021/11/06 01:57:59;;;;;;;19.90;18.40;;;3.80;99.90;;;;;;5011441;28;20247;-77
2021/11/06 02:00:28;;;;;;;20.27;18.57;;;3.80;99.90;;;;;;5000680;28;20635;-78
2021/11/06 02:02:55;;;;;;;20.50;18.90;;;3.70;99.90;;;;;;5003845;28;20467;-78
2021/11/06 02:05:24;;;;;;;20.53;18.83;;;3.70;99.90;;;;;;5013322;28;20628;-78
2021/11/06 02:07:52;;;;;;;19.50;18.07;;;3.70;99.90;;;;;;5013100;28;20275;-77
2021/11/06 02:10:19;;;;;;;20.23;18.80;;;3.60;99.90;;;;;;5005782;28;20935;-78
2021/11/06 02:12:46;;;;;;;20.10;18.60;;;3.60;99.90;;;;;;5010413;28;20866;-78
2021/11/06 02:15:16;;;;;;;19.80;18.30;;;3.50;99.90;;;;;;5010265;28;20453;-78
2021/11/06 02:17:43;;;;;;;19.80;18.40;;;3.40;99.90;;;;;;5011362;28;20479;-77
2021/11/06 02:20:11;;;;;;;18.53;17.33;;;3.30;99.90;;;;;;5012891;28;20436;-78
2021/11/06 02:22:40;;;;;;;18.40;17.10;;;3.20;99.90;;;;;;5008701;28;20503;-78
2021/11/06 02:25:07;;;;;;;19.07;17.77;;;3.20;99.90;;;;;;5003467;28;20876;-78
2021/11/06 02:27:34;;;;;;;18.80;17.60;;;3.10;99.90;;;;;;5005881;28;20467;-78
2021/11/06 02:30:01;;;;;;;18.93;17.53;;;3.10;99.90;;;;;;5012629;28;20443;-78
2021/11/06 02:32:28;;;;;;;18.60;17.40;;;3.10;99.90;;;;;;5012694;28;20928;-78
2021/11/06 02:34:55;;;;;;;18.43;17.23;;;3.00;99.90;;;;;;5011449;28;20514;-77
2021/11/06 02:37:22;;;;;;;18.93;17.63;;;3.00;99.90;;;;;;5004356;28;20486;-78
2021/11/06 02:39:50;;;;;;;19.67;18.37;;;2.90;99.90;;;;;;5012158;28;20579;-78
2021/11/06 02:42:17;;;;;;;20.73;19.10;;;2.90;99.90;;;;;;5016401;28;20900;-78
2021/11/06 02:44:44;;;;;;;20.30;18.73;;;2.90;99.90;;;;;;5006781;28;20469;-77
2021/11/06 02:47:11;;;;;;;19.93;18.50;;;3.00;99.90;;;;;;5011885;28;20455;-78
2021/11/06 02:49:38;;;;;;;20.23;18.67;;;3.00;99.90;;;;;;5012293;28;20433;-77
2021/11/06 02:52:05;;;;;;;20.90;19.20;;;3.00;99.90;;;;;;5015161;28;20448;-77
2021/11/06 02:54:33;;;;;;;20.83;19.20;;;3.00;99.90;;;;;;5012299;28;20493;-78
2021/11/06 02:57:01;;;;;;;20.90;19.40;;;3.00;99.90;;;;;;5011433;28;20518;-78
2021/11/06 02:59:28;;;;;;;20.13;18.67;;;3.00;99.90;;;;;;5016607;28;20460;-77
2021/11/06 03:01:55;;;;;;;20.03;18.70;;;3.00;99.90;;;;;;5012204;28;20525;-78
2021/11/06 03:04:22;;;;;;;20.90;19.40;;;3.00;99.90;;;;;;5004058;28;20511;-78
2021/11/06 03:06:50;;;;;;;21.73;20.20;;;3.00;99.90;;;;;;5011880;28;20463;-78
2021/11/06 03:09:18;;;;;;;19.80;18.50;;;3.10;99.90;;;;;;5010303;28;20445;-77
2021/11/06 03:11:44;;;;;;;20.77;19.20;;;2.90;99.90;;;;;;5002645;28;21574;-78
2021/11/06 03:14:13;;;;;;;22.97;20.53;;;2.90;99.90;;;;;;5015838;28;20815;-78
2021/11/06 03:16:41;;;;;;;21.90;19.93;;;2.80;99.90;;;;;;5009903;28;20470;-78
2021/11/06 03:19:08;;;;;;;20.50;19.10;;;2.80;99.90;;;;;;5003519;28;20488;-78
2021/11/06 03:21:35;;;;;;;20.27;18.83;;;2.70;99.90;;;;;;4998362;28;20451;-78
2021/11/06 03:24:02;;;;;;;20.47;18.97;;;2.70;99.90;;;;;;5011867;28;20483;-77
2021/11/06 03:26:29;;;;;;;20.30;18.70;;;2.50;99.90;;;;;;5015579;28;20464;-78
2021/11/06 03:28:55;;;;;;;20.33;18.90;;;2.40;99.90;;;;;;5009483;28;20505;-78
2021/11/06 03:31:24;;;;;;;20.00;18.60;;;2.40;99.90;;;;;;5011910;28;20444;-78
2021/11/06 03:33:51;;;;;;;20.13;18.73;;;2.40;99.90;;;;;;5005014;28;20453;-78
2021/11/06 03:36:18;;;;;;;20.87;19.37;;;2.30;99.90;;;;;;5011772;28;20441;-78
2021/11/06 03:38:45;;;;;;;20.40;18.83;;;2.40;99.90;;;;;;5008981;28;20989;-78
2021/11/06 03:41:12;;;;;;;23.63;21.60;;;2.50;99.90;;;;;;5002547;28;20574;-78
2021/11/06 03:43:39;;;;;;;25.17;20.20;;;2.60;99.90;;;;;;5011570;28;20559;-78
2021/11/06 03:46:06;;;;;;;20.77;19.23;;;2.50;99.90;;;;;;5011764;28;20538;-78
2021/11/06 03:48:35;;;;;;;19.93;18.53;;;2.50;99.90;;;;;;5019927;28;20486;-78
2021/11/06 03:51:02;;;;;;;22.33;20.27;;;2.50;99.90;;;;;;5015511;28;20455;-77
2021/11/06 03:53:29;;;;;;;20.63;19.23;;;2.50;99.90;;;;;;5007557;28;20964;-78
2021/11/06 03:55:56;;;;;;;22.37;20.40;;;2.60;99.90;;;;;;5011573;28;20439;-78
2021/11/06 03:58:23;;;;;;;22.80;19.80;;;2.70;99.90;;;;;;4996258;28;20554;-78
2021/11/06 04:00:50;;;;;;;26.50;21.07;;;2.60;99.90;;;;;;4990622;28;20455;-78
2021/11/06 04:03:17;;;;;;;20.07;18.67;;;2.70;99.90;;;;;;5012002;28;20489;-78
2021/11/06 04:05:45;;;;;;;22.50;20.27;;;2.60;99.90;;;;;;5006151;28;20451;-78
2021/11/06 04:08:12;;;;;;;20.70;19.20;;;2.50;99.90;;;;;;4991269;28;20860;-78
2021/11/06 04:10:39;;;;;;;21.90;19.70;;;2.40;99.90;;;;;;5014802;28;20449;-78
2021/11/06 04:13:05;;;;;;;21.90;19.43;;;2.30;99.90;;;;;;5008710;28;20506;-76
2021/11/06 04:15:32;;;;;;;20.57;19.10;;;2.30;99.90;;;;;;5005159;28;20502;-77
2021/11/06 04:18:00;;;;;;;24.07;19.60;;;2.30;99.90;;;;;;5019649;28;20479;-77
2021/11/06 04:20:27;;;;;;;21.07;19.33;;;2.30;99.90;;;;;;5011538;28;20451;-76
2021/11/06 04:22:55;;;;;;;20.27;18.87;;;2.30;99.90;;;;;;5014634;28;20986;-77
2021/11/06 04:25:22;;;;;;;20.90;19.50;;;2.30;99.90;;;;;;5006200;28;20513;-77
2021/11/06 04:27:49;;;;;;;21.87;20.20;;;2.30;99.90;;;;;;4993791;28;20474;-77
2021/11/06 04:30:16;;;;;;;22.77;20.63;;;2.40;99.90;;;;;;5013970;28;20435;-76
2021/11/06 04:32:43;;;;;;;21.30;19.90;;;2.40;99.90;;;;;;5016330;28;20810;-77
2021/11/06 04:35:10;;;;;;;22.63;20.87;;;2.40;99.90;;;;;;5012076;28;20894;-79
2021/11/06 04:37:38;;;;;;;23.17;21.07;;;2.50;99.90;;;;;;5013907;28;20454;-77
2021/11/06 04:40:09;;;;;;;21.27;19.77;;;2.50;99.90;;;;;;5013711;28;20441;-77
2021/11/06 04:42:36;;;;;;;24.13;22.07;;;2.50;99.90;;;;;;4998815;28;20469;-77
2021/11/06 04:45:04;;;;;;;25.97;21.43;;;2.60;99.90;;;;;;5013624;28;20437;-77
2021/11/06 04:47:31;;;;;;;23.00;21.30;;;2.60;99.90;;;;;;4999001;28;20780;-77
2021/11/06 04:49:58;;;;;;;23.97;21.97;;;2.70;99.90;;;;;;5008818;28;20452;-77
2021/11/06 04:52:25;;;;;;;23.30;21.37;;;2.70;99.90;;;;;;5012482;28;20462;-77
2021/11/06 04:54:52;;;;;;;23.47;21.70;;;2.80;99.90;;;;;;5021315;28;20469;-77
2021/11/06 04:57:20;;;;;;;24.07;22.27;;;2.90;99.90;;;;;;5025838;28;20486;-77
2021/11/06 04:59:47;;;;;;;23.10;21.30;;;2.90;99.90;;;;;;5026631;28;20443;-76
2021/11/06 05:02:15;;;;;;;23.50;21.60;;;2.90;99.90;;;;;;5007062;28;20451;-77
2021/11/06 05:04:41;;;;;;;23.63;21.63;;;2.90;99.90;;;;;;4996402;28;20495;-77
2021/11/06 05:07:08;;;;;;;24.73;22.13;;;3.00;99.90;;;;;;5012045;28;20502;-77
2021/11/06 05:09:35;;;;;;;23.47;21.67;;;3.00;99.90;;;;;;5011148;28;20441;-76
2021/11/06 05:12:02;;;;;;;22.60;20.97;;;3.00;99.90;;;;;;5004308;28;20451;-76
2021/11/06 05:14:30;;;;;;;23.50;21.17;;;3.00;99.90;;;;;;5010204;28;20437;-76
2021/11/06 05:16:57;;;;;;;22.63;20.83;;;3.00;99.90;;;;;;4998983;28;20482;-76
2021/11/06 05:19:24;;;;;;;42.67;22.27;;;3.00;99.90;;;;;;5010311;28;20448;-76
2021/11/06 05:21:51;;;;;;;22.50;20.90;;;3.00;99.90;;;;;;5005737;28;20883;-76
2021/11/06 05:24:17;;;;;;;25.23;21.93;;;2.90;99.90;;;;;;5010564;28;20473;-76
2021/11/06 05:26:44;;;;;;;22.87;21.03;;;2.90;99.90;;;;;;5012776;28;20513;-76
2021/11/06 05:29:12;;;;;;;23.70;21.50;;;2.90;99.90;;;;;;5008859;28;20812;-76
2021/11/06 05:31:41;;;;;;;21.40;19.97;;;2.90;99.90;;;;;;4999629;28;20451;-76
2021/11/06 05:34:08;;;;;;;22.70;21.10;;;2.90;99.90;;;;;;5012936;28;20436;-76
2021/11/06 05:36:35;;;;;;;27.47;22.27;;;2.90;99.90;;;;;;5012850;28;20926;-76
2021/11/06 05:39:02;;;;;;;24.50;22.03;;;3.00;99.90;;;;;;5003348;28;20502;-77
2021/11/06 05:41:29;;;;;;;23.60;21.80;;;3.10;99.90;;;;;;5013251;28;20441;-76
2021/11/06 05:43:56;;;;;;;23.50;21.80;;;3.20;99.90;;;;;;5001707;28;20480;-76
2021/11/06 05:46:23;;;;;;;24.00;22.03;;;3.20;99.90;;;;;;5013181;28;20860;-77
2021/11/06 05:48:51;;;;;;;21.73;20.10;;;3.20;99.90;;;;;;5019238;28;20549;-77
2021/11/06 05:51:18;;;;;;;22.80;20.90;;;3.30;99.90;;;;;;5013011;28;20432;-78
2021/11/06 05:53:45;;;;;;;22.63;20.73;;;3.20;99.90;;;;;;5003436;28;20452;-78
2021/11/06 05:56:12;;;;;;;22.80;21.10;;;3.30;99.90;;;;;;5012206;28;20480;-77
2021/11/06 05:58:39;;;;;;;23.10;21.20;;;3.20;99.90;;;;;;4993727;28;20509;-78
2021/11/06 06:01:05;;;;;;;24.07;22.07;;;3.20;99.90;;;;;;5008739;28;20994;-75
2021/11/06 06:03:33;;;;;;;22.73;21.13;;;3.30;99.90;;;;;;5010444;28;20522;-77
2021/11/06 06:06:01;;;;;;;22.73;20.90;;;3.20;99.90;;;;;;5003980;28;20507;-77
2021/11/06 06:08:28;;;;;;;22.63;20.83;;;3.20;99.90;;;;;;5012688;28;20461;-77
2021/11/06 06:10:54;;;;;;;22.17;20.47;;;3.30;99.90;;;;;;5009617;28;20488;-77
2021/11/06 06:13:21;;;;;;;22.00;20.40;;;3.30;99.90;;;;;;4993620;28;21123;-77
2021/11/06 06:15:49;;;;;;;23.00;21.27;;;3.30;99.90;;;;;;5012304;28;20462;-76
2021/11/06 06:18:15;;;;;;;23.27;21.40;;;3.30;99.90;;;;;;5007503;28;20830;-76
2021/11/06 06:20:42;;;;;;;23.17;21.40;;;3.30;99.90;;;;;;5012303;28;20457;-77
2021/11/06 06:23:10;;;;;;;21.87;20.27;;;3.30;99.90;;;;;;5012434;28;21037;-77
2021/11/06 06:25:37;;;;;;;23.07;21.23;;;3.20;99.90;;;;;;5012454;28;20445;-77
2021/11/06 06:28:06;;;;;;;22.97;21.17;;;3.20;99.90;;;;;;5003732;28;20568;-77
2021/11/06 06:30:35;;;;;;;22.47;20.60;;;3.20;99.90;;;;;;4993635;28;20457;-79
2021/11/06 06:33:02;;;;;;;21.63;20.07;;;3.20;99.90;;;;;;5009691;28;20471;-77
2021/11/06 06:35:29;;;;;;;22.13;20.53;;;3.20;99.90;;;;;;4991332;28;20895;-80
2021/11/06 06:37:57;;;;;;;21.80;20.10;;;3.20;99.90;;;;;;5006168;28;20490;-77
2021/11/06 06:40:25;;;;;;;21.77;20.17;;;3.20;99.90;;;;;;4996081;28;20439;-78
2021/11/06 06:42:52;;;;;;;21.40;19.80;;;3.20;99.90;;;;;;5004491;28;20500;-77
2021/11/06 06:45:20;;;;;;;22.27;20.20;;;3.30;99.90;;;;;;4999104;28;20451;-78
2021/11/06 06:47:46;;;;;;;21.13;19.63;;;3.30;99.90;;;;;;5005885;28;20481;-79
2021/11/06 06:50:14;;;;;;;22.63;20.70;;;3.30;99.90;;;;;;4998373;28;20508;-78
2021/11/06 06:52:41;;;;;;;21.43;19.93;;;3.30;99.90;;;;;;4990745;28;20456;-76
2021/11/06 06:55:09;;;;;;;21.07;19.60;;;3.30;99.90;;;;;;4997721;28;20459;-76
2021/11/06 06:57:37;;;;;;;22.37;20.57;;;3.40;99.90;;;;;;4995940;28;21025;-76
2021/11/06 07:00:07;;;;;;;21.87;20.27;;;3.40;99.90;;;;;;4997017;28;20462;-76
2021/11/06 07:02:33;;;;;;;20.90;19.20;;;3.30;99.90;;;;;;5010904;28;20436;-76
2021/11/06 07:05:00;;;;;;;22.03;20.27;;;3.40;99.90;;;;;;5010850;28;20538;-76
2021/11/06 07:07:27;;;;;;;22.03;20.33;;;3.40;99.90;;;;;;5008415;28;20230;-75
2021/11/06 07:09:54;;;;;;;23.20;21.00;;;3.40;99.90;;;;;;5010940;28;20839;-76
2021/11/06 07:12:23;;;;;;;22.60;20.80;;;3.40;99.90;;;;;;5010990;28;20454;-76
2021/11/06 07:14:51;;;;;;;22.73;21.03;;;3.40;99.90;;;;;;5010796;28;20431;-76
2021/11/06 07:17:18;;;;;;;21.60;19.57;;;3.40;99.90;;;;;;5010929;28;20561;-75
2021/11/06 07:19:45;;;;;;;22.70;20.80;;;3.50;99.90;;;;;;4995629;28;20266;-78
2021/11/06 07:22:12;;;;;;;22.90;21.10;;;3.40;99.90;;;;;;5007805;28;20205;-78
2021/11/06 07:24:39;;;;;;;22.30;20.13;;;3.40;99.90;;;;;;4999452;28;20518;-77
2021/11/06 07:27:08;;;;;;;23.60;20.67;;;3.40;99.90;;;;;;5010786;28;20455;-76
2021/11/06 07:29:35;;;;;;;22.33;19.97;;;3.40;99.90;;;;;;5011137;28;20445;-76
2021/11/06 07:32:04;;;;;;;21.73;20.13;;;3.40;99.90;;;;;;4998762;28;20956;-78
2021/11/06 07:34:31;;;;;;;22.57;20.77;;;3.50;99.90;;;;;;5009439;28;21011;-77
2021/11/06 07:36:58;;;;;;;24.97;22.27;;;3.50;99.90;;;;;;4992849;28;20497;-75
2021/11/06 07:39:26;;;;;;;21.50;19.80;;;3.50;99.90;;;;;;5000658;28;20514;-78
2021/11/06 07:41:53;;;;;;;22.37;20.33;;;3.60;99.90;;;;;;5017464;28;20491;-76
2021/11/06 07:44:20;;;;;;;20.83;19.30;;;3.60;99.90;;;;;;5011849;28;20490;-77
2021/11/06 07:46:47;;;;;;;19.70;17.83;;;3.70;99.90;;;;;;5001319;28;20220;-77
2021/11/06 07:49:15;;;;;;;19.23;17.67;;;3.70;99.90;;;;;;5010623;28;20932;-76
2021/11/06 07:51:42;;;;;;;19.57;17.93;;;3.60;99.90;;;;;;5011911;28;20205;-78
2021/11/06 07:54:08;;;;;;;20.17;18.57;;;3.80;99.90;;;;;;5009957;28;20238;-77
2021/11/06 07:56:38;;;;;;;20.77;19.17;;;3.90;99.90;;;;;;5005063;28;20225;-77
2021/11/06 07:59:05;;;;;;;20.80;19.10;;;3.90;99.90;;;;;;5015164;28;20431;-77
2021/11/06 08:01:32;;;;;;;19.33;17.83;;;4.00;99.90;;;;;;5001851;28;20712;-77
2021/11/06 08:03:59;;;;;;;19.70;18.10;;;4.00;99.90;;;;;;5015051;28;20239;-78
2021/11/06 08:06:27;;;;;;;19.93;18.33;;;4.00;99.90;;;;;;5012449;28;20256;-76
2021/11/06 08:08:54;;;;;;;19.53;17.93;;;4.10;99.90;;;;;;5014738;28;20204;-76
2021/11/06 08:11:21;;;;;;;18.63;16.97;;;4.20;99.90;;;;;;5015095;28;20201;-75
2021/11/06 08:13:49;;;;;;;18.53;17.03;;;4.20;99.90;;;;;;5005269;28;20247;-76
2021/11/06 08:16:15;;;;;;;18.30;16.80;;;4.20;99.90;;;;;;4996602;28;20283;-76
2021/11/06 08:18:43;;;;;;;18.97;17.27;;;4.10;99.90;;;;;;5009107;28;20211;-77
2021/11/06 08:21:11;;;;;;;18.83;17.40;;;4.20;99.90;;;;;;5015322;28;20567;-76
2021/11/06 08:23:39;;;;;;;17.97;16.63;;;4.30;99.90;;;;;;5004917;28;20248;-78
2021/11/06 08:26:06;;;;;;;18.47;17.07;;;4.40;99.90;;;;;;5024678;28;20196;-78
2021/11/06 08:28:33;;;;;;;18.50;17.07;;;4.40;99.90;;;;;;5007786;28;20278;-79
2021/11/06 08:31:00;;;;;;;16.23;14.87;;;4.50;99.90;;;;;;5014942;28;20192;-77
2021/11/06 08:33:29;;;;;;;15.73;14.20;;;4.50;99.90;;;;;;5009493;28;20204;-77
2021/11/06 08:35:55;;;;;;;12.20;10.90;;;4.60;99.90;;;;;;5013897;28;20562;-77
2021/11/06 08:38:22;;;;;;;16.67;15.27;;;4.60;99.90;;;;;;5004786;28;20283;-77
2021/11/06 08:40:51;;;;;;;13.30;10.33;;;4.80;99.90;;;;;;5014306;28;20274;-77
2021/11/06 08:43:18;;;;;;;16.13;14.73;;;4.80;99.90;;;;;;5014168;28;20197;-77
2021/11/06 08:45:46;;;;;;;13.70;12.27;;;4.70;99.90;;;;;;4999339;28;20232;-78
2021/11/06 08:48:13;;;;;;;10.50;8.47;;;4.80;99.90;;;;;;5005852;28;20224;-76
2021/11/06 08:50:40;;;;;;;10.13;7.90;;;4.90;99.90;;;;;;5014127;28;20208;-78
2021/11/06 08:53:07;;;;;;;11.50;8.40;;;4.90;99.90;;;;;;5011694;28;20274;-78
2021/11/06 08:55:34;;;;;;;10.47;9.00;;;4.90;99.90;;;;;;5009105;28;20254;-77
2021/11/06 08:58:03;;;;;;;9.83;8.17;;;5.00;99.90;;;;;;5007659;28;20222;-78
2021/11/06 09:00:34;;;;;;;13.07;10.40;;;5.00;99.90;;;;;;5020282;28;20201;-77
2021/11/06 09:03:03;;;;;;;14.47;13.17;;;5.00;99.90;;;;;;5007403;28;20662;-77
2021/11/06 09:05:32;;;;;;;17.37;16.07;;;5.00;99.90;;;;;;5015600;28;20228;-78
2021/11/06 09:08:00;;;;;;;17.90;16.40;;;5.00;99.90;;;;;;5013752;28;20220;-77
2021/11/06 09:10:27;;;;;;;17.67;16.27;;;5.20;99.90;;;;;;5007550;28;20693;-77
2021/11/06 09:12:54;;;;;;;17.77;16.30;;;5.20;99.90;;;;;;5021246;28;20189;-76
2021/11/06 09:15:23;;;;;;;17.77;16.37;;;5.20;99.90;;;;;;5010640;28;20201;-78
2021/11/06 09:17:50;;;;;;;18.63;17.17;;;5.20;99.90;;;;;;5008550;28;20224;-77
2021/11/06 09:20:17;;;;;;;17.93;16.53;;;5.10;99.90;;;;;;5020891;28;20197;-78
2021/11/06 09:22:45;;;;;;;17.57;16.20;;;5.20;99.90;;;;;;5011429;28;20205;-77
2021/11/06 09:25:12;;;;;;;17.27;15.80;;;5.20;99.90;;;;;;5006313;28;21585;-78
2021/11/06 09:27:39;;;;;;;18.20;16.80;;;5.20;99.90;;;;;;5012897;28;20220;-78
2021/11/06 09:30:09;;;;;;;19.07;17.37;;;5.30;99.90;;;;;;5006507;28;20192;-77
2021/11/06 09:32:38;;;;;;;18.97;17.40;;;5.40;99.90;;;;;;4998175;28;20205;-78
2021/11/06 09:35:06;;;;;;;19.13;17.63;;;5.40;99.90;;;;;;5005799;28;20666;-77
2021/11/06 09:37:34;;;;;;;24.57;22.20;;;5.40;99.90;;;;;;5013308;28;20279;-77
2021/11/06 09:40:00;;;;;;;20.90;19.10;;;5.40;99.90;;;;;;5008302;28;20208;-77
2021/11/06 09:42:27;;;;;;;18.87;17.27;;;5.40;99.90;;;;;;5010333;28;20247;-77
2021/11/06 09:44:54;;;;;;;20.07;18.47;;;5.50;99.90;;;;;;5013145;28;20789;-77
2021/11/06 09:47:22;;;;;;;19.07;17.47;;;5.50;99.90;;;;;;5007299;28;20225;-78
2021/11/06 09:49:50;;;;;;;20.53;18.63;;;5.60;99.90;;;;;;5002402;28;20251;-77
2021/11/06 09:52:19;;;;;;;19.73;18.03;;;5.50;99.90;;;;;;5000169;28;20205;-77
2021/11/06 09:54:46;;;;;;;19.87;18.17;;;5.60;99.90;;;;;;5006248;28;20208;-78
2021/11/06 09:57:13;;;;;;;19.07;17.53;;;5.50;99.90;;;;;;5009370;28;20710;-78
2021/11/06 09:59:40;;;;;;;19.70;18.07;;;5.50;99.90;;;;;;4997781;28;20256;-78
2021/11/06 10:02:07;;;;;;;18.53;17.00;;;5.60;99.90;;;;;;5003599;28;20205;-77
2021/11/06 10:04:34;;;;;;;19.23;17.73;;;5.60;99.90;;;;;;4995220;28;20642;-78
2021/11/06 10:07:16;;;;;;;21.00;19.03;;;5.60;99.90;;;;;;5012491;28;20208;-78
2021/11/06 10:09:53;;;;;;;20.73;19.03;;;5.60;99.90;;;;;;4998409;28;20213;-77
2021/11/06 10:12:21;;;;;;;20.80;19.00;;;5.70;99.90;;;;;;5012931;28;20207;-77
2021/11/06 10:15:01;;;;;;;20.67;18.97;;;5.70;99.90;;;;;;5003290;28;20189;-78
2021/11/06 10:17:27;;;;;;;19.90;18.30;;;5.80;99.90;;;;;;5007106;28;20287;-77
2021/11/06 10:19:54;;;;;;;20.43;18.63;;;5.80;99.90;;;;;;5005164;28;20220;-78
2021/11/06 10:22:25;;;;;;;20.27;18.37;;;5.90;99.90;;;;;;5012611;28;20303;-78
2021/11/06 10:24:54;;;;;;;20.37;18.67;;;5.90;99.90;;;;;;5005100;28;20752;-77
2021/11/06 10:27:23;;;;;;;20.43;18.77;;;6.00;99.90;;;;;;5012268;28;20221;-78
2021/11/06 10:30:02;;;;;;;22.17;19.83;;;6.00;99.90;;;;;;5012394;28;20696;-75
2021/11/06 10:32:29;;;;;;;21.57;19.67;;;6.10;99.90;;;;;;4997734;28;20206;-77
2021/11/06 10:34:55;;;;;;;20.67;18.97;;;6.10;99.90;;;;;;5004525;28;20201;-77
2021/11/06 10:37:25;;;;;;;21.00;19.20;;;6.10;99.90;;;;;;5012562;28;20263;-78
2021/11/06 10:39:57;;;;;;;20.73;18.93;;;6.00;99.90;;;;;;5002782;28;20255;-78
2021/11/06 10:42:24;;;;;;;21.10;19.30;;;6.00;99.90;;;;;;5008901;28;20272;-78
2021/11/06 10:45:07;;;;;;;21.37;19.50;;;6.10;99.90;;;;;;5007873;28;20589;-78
2021/11/06 10:47:51;;;;;;;22.10;20.23;;;6.10;99.90;;;;;;5010102;28;20223;-77
2021/11/06 10:50:37;;;;;;;21.07;19.13;;;6.00;99.90;;;;;;5010792;28;20322;-78
2021/11/06 10:53:05;;;;;;;21.93;19.93;;;6.20;99.90;;;;;;5016954;28;20206;-78
2021/11/06 10:55:34;;;;;;;22.20;20.10;;;6.10;99.90;;;;;;5008736;28;20235;-77
2021/11/06 10:58:01;;;;;;;22.13;20.17;;;6.10;99.90;;;;;;5012813;28;20221;-78
2021/11/06 11:00:28;;;;;;;22.03;20.07;;;6.20;99.90;;;;;;5021755;28;20555;-77
2021/11/06 11:02:55;;;;;;;23.63;21.37;;;6.20;99.90;;;;;;5012021;28;20207;-78
2021/11/06 11:05:35;;;;;;;23.23;20.93;;;6.30;99.90;;;;;;5012090;28;20276;-78
2021/11/06 11:08:05;;;;;;;22.63;20.43;;;6.50;99.90;;;;;;5008854;28;20225;-78
2021/11/06 11:10:32;;;;;;;21.47;19.47;;;6.50;99.90;;;;;;5012203;28;20255;-78
2021/11/06 11:13:10;;;;;;;22.63;20.53;;;6.50;99.90;;;;;;5011870;28;20195;-78
2021/11/06 11:15:36;;;;;;;25.20;22.60;;;6.50;99.90;;;;;;5002014;28;20199;-78
2021/11/06 11:18:03;;;;;;;25.00;22.73;;;6.50;99.90;;;;;;5004437;28;20226;-79
2021/11/06 11:20:35;;;;;;;25.93;23.43;;;6.50;99.90;;;;;;5004302;28;20205;-79
2021/11/06 11:23:15;;;;;;;25.43;22.97;;;6.50;99.90;;;;;;4995325;28;20681;-78
2021/11/06 11:25:43;;;;;;;26.10;23.40;;;6.60;99.90;;;;;;5011399;28;20228;-78
2021/11/06 11:28:11;;;;;;;25.67;23.17;;;6.70;99.90;;;;;;5011327;28;20238;-78
2021/11/06 11:30:39;;;;;;;26.40;23.63;;;6.60;99.90;;;;;;5001165;28;20687;-78
2021/11/06 11:33:05;;;;;;;26.33;23.57;;;6.70;99.90;;;;;;5018431;28;20206;-78
2021/11/06 11:35:34;;;;;;;27.80;24.90;;;6.60;99.90;;;;;;4998806;28;20753;-78
2021/11/06 11:38:02;;;;;;;28.73;25.47;;;6.70;99.90;;;;;;5011509;28;20218;-78
2021/11/06 11:40:32;;;;;;;26.43;23.90;;;6.70;99.90;;;;;;5001426;28;20242;-79
2021/11/06 11:43:10;;;;;;;27.23;24.53;;;6.70;99.90;;;;;;5002109;28;20248;-78
2021/11/06 11:45:46;;;;;;;23.90;19.03;;;6.70;99.90;;;;;;5016592;28;20651;-78
2021/11/06 11:48:15;;;;;;;25.63;23.03;;;6.70;99.90;;;;;;5004604;28;20222;-78
2021/11/06 11:50:45;;;;;;;29.23;25.60;;;6.40;99.90;;;;;;5002169;28;20201;-78
2021/11/06 11:53:22;;;;;;;26.53;23.70;;;6.20;99.90;;;;;;5011423;28;20198;-77
2021/11/06 11:55:51;;;;;;;26.40;23.53;;;6.40;99.90;;;;;;5011454;28;20198;-78
2021/11/06 11:58:21;;;;;;;26.33;23.33;;;6.60;99.90;;;;;;5017671;28;20757;-77
2021/11/06 12:00:51;;;;;;;28.07;24.87;;;6.60;99.90;;;;;;5011474;28;20199;-78
2021/11/06 12:03:30;;;;;;;29.47;24.60;;;6.60;99.90;;;;;;5002577;28;20202;-78
2021/11/06 12:05:57;;;;;;;29.60;24.63;;;6.80;99.90;;;;;;5008201;28;20212;-78
2021/11/06 12:08:35;;;;;;;26.63;23.90;;;6.80;99.90;;;;;;4995539;28;20287;-77
2021/11/06 12:11:16;;;;;;;27.50;24.57;;;6.90;99.90;;;;;;5006976;28;20740;-78
2021/11/06 12:13:48;;;;;;;27.27;24.37;;;7.00;99.90;;;;;;5005463;28;20201;-78
2021/11/06 12:16:16;;;;;;;26.37;23.57;;;7.00;99.90;;;;;;5015740;28;20586;-77
2021/11/06 12:19:01;;;;;;;30.47;25.67;;;6.90;99.90;;;;;;5002255;28;20680;-78
2021/11/06 12:21:33;;;;;;;36.63;29.60;;;6.80;99.90;;;;;;5012305;28;20206;-76
2021/11/06 12:24:21;;;;;;;42.53;31.30;;;6.80;99.90;;;;;;5011230;28;20203;-77
2021/11/06 12:26:54;;;;;;;36.30;29.37;;;6.80;99.90;;;;;;5010836;28;20298;-78
2021/11/06 12:29:24;;;;;;;29.40;26.20;;;6.90;99.90;;;;;;4997213;28;20294;-78
2021/11/06 12:31:53;;;;;;;30.17;26.43;;;6.90;99.90;;;;;;5026115;28;20227;-78
2021/11/06 12:34:41;;;;;;;28.20;25.27;;;6.90;99.90;;;;;;5010661;28;20276;-78
2021/11/06 12:37:09;;;;;;;27.77;24.87;;;6.90;99.90;;;;;;5011842;28;20725;-78
2021/11/06 12:39:52;;;;;;;29.60;26.27;;;6.90;99.90;;;;;;5005631;28;20224;-78
2021/11/06 12:42:23;;;;;;;27.00;24.30;;;7.00;99.90;;;;;;5001235;28;20205;-77